createdAt,value
2019-04-25T00:01:47.635Z,13.30
2019-04-25T00:04:18.527Z,13.30
2019-04-25T00:06:48.067Z,13.30
2019-04-25T00:09:22.103Z,13.40
2019-04-25T00:11:52.284Z,13.40
2019-04-25T00:14:23.639Z,13.40
2019-04-25T00:16:53.750Z,13.40
2019-04-25T00:19:23.238Z,13.50
2019-04-25T00:21:57.439Z,13.40
2019-04-25T00:24:37.683Z,13.40
2019-04-25T00:27:07.072Z,13.40
2019-04-25T00:29:36.516Z,13.40
2019-04-25T00:32:06.049Z,13.30
2019-04-25T00:34:35.493Z,13.30
2019-04-25T00:37:04.953Z,13.30
2019-04-25T00:39:34.398Z,13.20
2019-04-25T00:42:03.959Z,13.20
2019-04-25T00:44:33.407Z,13.30
2019-04-25T00:47:02.935Z,13.30
2019-04-25T00:49:32.468Z,13.30
2019-04-25T00:52:02.137Z,13.20
2019-04-25T00:54:31.732Z,13.20
2019-04-25T00:57:02.178Z,13.10
2019-04-25T00:59:52.853Z,13.10
2019-04-25T01:02:27.411Z,13.10
2019-04-25T01:04:56.962Z,13.10
2019-04-25T01:07:26.488Z,13.00
2019-04-25T01:09:55.923Z,12.90
2019-04-25T01:12:25.484Z,12.80
2019-04-25T01:14:54.915Z,12.80
2019-04-25T01:17:24.378Z,12.80
2019-04-25T01:19:56.917Z,12.90
2019-04-25T01:22:24.975Z,12.80
2019-04-25T01:24:55.181Z,12.80
2019-04-25T01:27:25.463Z,12.80
2019-04-25T01:29:56.412Z,12.70
2019-04-25T01:32:30.686Z,12.70
2019-04-25T01:35:07.579Z,12.60
2019-04-25T01:37:38.687Z,12.70
2019-04-25T01:40:09.697Z,12.80
2019-04-25T01:42:40.748Z,12.70
2019-04-25T01:45:10.186Z,12.60
2019-04-25T01:47:39.745Z,12.60
2019-04-25T01:50:09.184Z,12.60
2019-04-25T01:52:38.754Z,12.60
2019-04-25T01:55:08.457Z,12.60
2019-04-25T01:57:37.929Z,12.50
2019-04-25T02:00:09.558Z,12.50
2019-04-25T02:02:39.017Z,12.50
2019-04-25T02:05:10.090Z,12.60
2019-04-25T02:07:39.658Z,12.50
2019-04-25T02:10:10.730Z,12.50
2019-04-25T02:12:44.899Z,12.40
2019-04-25T02:15:16.041Z,12.40
2019-04-25T02:17:45.607Z,12.40
2019-04-25T02:20:15.216Z,12.50
2019-04-25T02:22:45.761Z,12.40
2019-04-25T02:25:15.220Z,12.40
2019-04-25T02:27:44.743Z,12.30
2019-04-25T02:30:16.784Z,12.30
2019-04-25T02:32:46.294Z,12.20
2019-04-25T02:35:15.856Z,12.20
2019-04-25T02:37:46.292Z,12.20
2019-04-25T02:40:15.829Z,12.20
2019-04-25T02:42:45.334Z,12.20
2019-04-25T02:45:16.747Z,12.20
2019-04-25T02:48:05.728Z,12.20
2019-04-25T02:50:46.323Z,12.20
2019-04-25T02:53:24.043Z,12.20
2019-04-25T02:55:53.902Z,12.30
2019-04-25T02:58:24.308Z,12.20
2019-04-25T03:01:03.335Z,12.10
2019-04-25T03:03:25.174Z,12.20
2019-04-25T03:05:55.042Z,12.20
2019-04-25T03:08:24.781Z,12.20
2019-04-25T03:10:54.507Z,12.20
2019-04-25T03:13:24.618Z,12.20
2019-04-25T03:15:55.741Z,12.20
2019-04-25T03:18:27.160Z,12.10
2019-04-25T03:20:59.738Z,12.10
2019-04-25T03:23:34.988Z,12.10
2019-04-25T03:26:06.090Z,12.10
2019-04-25T03:28:35.986Z,12.10
2019-04-25T03:31:12.459Z,12.10
2019-04-25T03:33:38.380Z,12.10
2019-04-25T03:36:08.060Z,12.10
2019-04-25T03:38:37.571Z,12.10
2019-04-25T03:41:07.097Z,12.10
2019-04-25T03:43:36.660Z,12.10
2019-04-25T03:46:06.993Z,12.10
2019-04-25T03:48:37.125Z,12.00
2019-04-25T03:51:06.843Z,12.00
2019-04-25T03:53:38.230Z,12.00
2019-04-25T03:56:08.614Z,12.00
2019-04-25T03:58:38.231Z,11.90
2019-04-25T04:01:08.638Z,11.90
2019-04-25T04:03:39.244Z,11.80
2019-04-25T04:06:09.808Z,11.70
2019-04-25T04:08:39.494Z,11.70
2019-04-25T04:11:09.188Z,11.80
2019-04-25T04:13:39.566Z,11.80
2019-04-25T04:16:09.133Z,11.80
2019-04-25T04:18:44.194Z,11.90
2019-04-25T04:21:30.571Z,11.90
2019-04-25T04:24:01.816Z,11.90
2019-04-25T04:26:31.354Z,12.00
2019-04-25T04:29:00.796Z,12.00
2019-04-25T04:31:30.422Z,12.00
2019-04-25T04:33:59.874Z,11.90
2019-04-25T04:36:29.446Z,11.90
2019-04-25T04:38:58.942Z,12.00
2019-04-25T04:41:28.588Z,12.00
2019-04-25T04:43:58.146Z,11.90
2019-04-25T04:46:27.804Z,11.90
2019-04-25T04:48:57.246Z,12.00
2019-04-25T04:51:26.713Z,12.00
2019-04-25T04:53:56.162Z,12.00
2019-04-25T04:56:25.782Z,12.10
2019-04-25T04:58:55.286Z,12.20
2019-04-25T05:01:26.582Z,12.10
2019-04-25T05:04:00.237Z,12.10
2019-04-25T05:06:37.537Z,12.20
2019-04-25T05:09:11.866Z,12.30
2019-04-25T05:11:41.898Z,12.30
2019-04-25T05:14:11.856Z,12.30
2019-04-25T05:16:43.122Z,12.40
2019-04-25T05:19:14.668Z,12.50
2019-04-25T05:21:45.650Z,12.50
2019-04-25T05:24:16.056Z,12.50
2019-04-25T05:26:46.115Z,12.50
2019-04-25T05:29:20.046Z,12.60
2019-04-25T05:31:48.502Z,12.70
2019-04-25T05:34:19.619Z,12.70
2019-04-25T05:36:49.260Z,12.80
2019-04-25T05:39:19.444Z,13.00
2019-04-25T05:42:11.265Z,13.10
2019-04-25T05:44:40.754Z,13.20
2019-04-25T05:47:10.262Z,13.20
2019-04-25T05:49:39.827Z,13.30
2019-04-25T05:52:09.276Z,13.40
2019-04-25T05:54:38.745Z,13.50
2019-04-25T05:57:08.290Z,13.60
2019-04-25T05:59:37.794Z,13.70
2019-04-25T06:02:07.242Z,13.80
2019-04-25T06:04:36.734Z,13.80
2019-04-25T06:07:06.201Z,14.00
2019-04-25T06:09:37.374Z,14.10
2019-04-25T06:12:11.267Z,14.20
2019-04-25T06:14:40.735Z,14.40
2019-04-25T06:17:21.436Z,14.50
2019-04-25T06:19:55.597Z,14.60
2019-04-25T06:22:26.887Z,14.60
2019-04-25T06:24:57.971Z,14.70
2019-04-25T06:27:29.189Z,14.80
2019-04-25T06:30:01.024Z,14.80
2019-04-25T06:32:30.762Z,14.80
2019-04-25T06:35:00.212Z,14.80
2019-04-25T06:37:29.686Z,14.90
2019-04-25T06:39:59.058Z,15.00
2019-04-25T06:42:28.490Z,15.00
2019-04-25T06:44:59.602Z,15.10
2019-04-25T06:47:36.556Z,15.20
2019-04-25T06:50:06.527Z,15.30
2019-04-25T06:52:36.026Z,15.50
2019-04-25T06:55:06.638Z,15.60
2019-04-25T06:57:36.113Z,15.70
2019-04-25T07:00:09.830Z,15.90
2019-04-25T07:02:39.291Z,16.00
2019-04-25T07:05:09.774Z,16.20
2019-04-25T07:07:39.146Z,16.20
2019-04-25T07:10:08.655Z,16.30
2019-04-25T07:12:38.245Z,16.50
2019-04-25T07:15:09.623Z,16.70
2019-04-25T07:17:39.163Z,16.80
2019-04-25T07:20:13.718Z,16.90
2019-04-25T07:22:43.797Z,17.10
2019-04-25T07:25:14.071Z,17.20
2019-04-25T07:28:00.509Z,17.30
2019-04-25T07:30:45.441Z,17.30
2019-04-25T07:33:13.824Z,17.40
2019-04-25T07:35:43.501Z,17.50
2019-04-25T07:38:14.049Z,17.50
2019-04-25T07:40:43.668Z,17.60
2019-04-25T07:43:13.471Z,17.60
2019-04-25T07:45:43.521Z,17.70
2019-04-25T07:48:13.953Z,17.80
2019-04-25T07:50:43.915Z,17.90
2019-04-25T07:53:14.225Z,18.10
2019-04-25T07:55:43.979Z,18.20
2019-04-25T07:58:15.313Z,18.50
2019-04-25T08:00:44.777Z,18.60
2019-04-25T08:03:15.419Z,18.70
2019-04-25T08:05:45.248Z,18.90
2019-04-25T08:08:14.675Z,19.00
2019-04-25T08:11:04.111Z,19.00
2019-04-25T08:13:42.249Z,19.00
2019-04-25T08:16:14.652Z,19.00
2019-04-25T08:18:44.170Z,19.00
2019-04-25T08:21:15.261Z,19.20
2019-04-25T08:23:45.082Z,19.30
2019-04-25T08:26:14.519Z,19.50
2019-04-25T08:28:54.457Z,19.70
2019-04-25T08:31:15.226Z,19.70
2019-04-25T08:33:46.596Z,19.80
2019-04-25T08:36:15.849Z,19.80
2019-04-25T08:38:45.331Z,19.90
2019-04-25T08:41:14.771Z,20.10
2019-04-25T08:43:45.512Z,20.20
2019-04-25T08:46:15.638Z,20.10
2019-04-25T08:49:02.379Z,20.30
2019-04-25T08:51:44.504Z,20.30
2019-04-25T08:54:25.023Z,20.40
2019-04-25T08:56:56.809Z,20.50
2019-04-25T08:59:44.798Z,20.60
2019-04-25T09:02:13.683Z,20.70
2019-04-25T09:04:44.814Z,20.80
2019-04-25T09:07:14.434Z,20.90
2019-04-25T09:09:45.126Z,21.00
2019-04-25T09:12:14.706Z,21.00
2019-04-25T09:14:45.066Z,21.20
2019-04-25T09:17:16.085Z,21.30
2019-04-25T09:19:45.523Z,21.40
2019-04-25T09:22:14.986Z,21.50
2019-04-25T09:25:05.521Z,21.50
2019-04-25T09:27:35.815Z,21.60
2019-04-25T09:30:08.056Z,21.80
2019-04-25T09:32:37.478Z,21.90
2019-04-25T09:35:06.961Z,22.00
2019-04-25T09:37:36.760Z,23.20
2019-04-25T09:40:08.970Z,22.00
2019-04-25T09:42:39.474Z,22.00
2019-04-25T09:45:15.277Z,22.10
2019-04-25T09:47:47.140Z,22.30
2019-04-25T09:50:27.238Z,22.40
2019-04-25T09:52:56.773Z,22.40
2019-04-25T09:55:27.850Z,22.50
2019-04-25T09:57:59.326Z,22.40
2019-04-25T10:00:30.391Z,22.50
2019-04-25T10:03:00.410Z,22.60
2019-04-25T10:05:29.865Z,22.70
2019-04-25T10:07:59.390Z,22.80
2019-04-25T10:10:28.819Z,22.90
2019-04-25T10:12:58.506Z,22.90
2019-04-25T10:15:47.857Z,22.90
2019-04-25T10:18:17.467Z,23.00
2019-04-25T10:20:47.512Z,23.10
2019-04-25T10:23:17.396Z,23.10
2019-04-25T10:25:46.844Z,23.20
2019-04-25T10:28:17.125Z,23.20
2019-04-25T10:30:46.959Z,23.20
2019-04-25T10:33:17.150Z,23.30
2019-04-25T10:35:53.083Z,23.50
2019-04-25T10:38:18.006Z,23.60
2019-04-25T10:40:47.633Z,23.80
2019-04-25T10:43:17.936Z,23.90
2019-04-25T10:45:47.479Z,23.90
2019-04-25T10:48:17.030Z,23.80
2019-04-25T10:50:47.439Z,23.70
2019-04-25T10:53:17.901Z,23.70
2019-04-25T10:55:47.625Z,23.90
2019-04-25T10:58:18.054Z,24.10
2019-04-25T11:00:49.304Z,24.10
2019-04-25T11:03:24.187Z,24.10
2019-04-25T11:05:55.930Z,24.00
2019-04-25T11:08:25.659Z,24.10
2019-04-25T11:10:55.186Z,24.10
2019-04-25T11:13:25.210Z,24.30
2019-04-25T11:15:55.966Z,24.30
2019-04-25T11:18:25.903Z,24.30
2019-04-25T11:20:56.256Z,24.40
2019-04-25T11:23:25.883Z,24.50
2019-04-25T12:07:34.369Z,25.80
2019-04-25T12:10:07.164Z,25.90
2019-04-25T12:12:37.418Z,26.10
2019-04-25T12:15:07.706Z,26.30
2019-04-25T12:17:37.774Z,26.20
2019-04-25T12:20:09.530Z,26.10
2019-04-25T12:22:39.713Z,26.00
2019-04-25T12:25:09.826Z,25.90
2019-04-25T12:27:39.945Z,25.90
2019-04-25T12:30:09.902Z,25.90
2019-04-25T12:32:39.920Z,25.90
2019-04-25T12:35:09.999Z,25.80
2019-04-25T12:37:39.990Z,25.80
2019-04-25T12:40:10.594Z,25.60
2019-04-25T12:42:40.760Z,25.50
2019-04-25T12:45:15.231Z,25.50
2019-04-25T12:47:46.469Z,25.60
2019-04-25T12:50:18.786Z,25.80
2019-04-25T12:52:49.078Z,26.00
2019-04-25T12:55:20.043Z,26.10
2019-04-25T12:57:50.119Z,26.20
2019-04-25T13:00:27.675Z,26.20
2019-04-25T13:02:57.274Z,26.00
2019-04-25T13:05:27.419Z,25.90
2019-04-25T13:07:58.667Z,25.60
2019-04-25T13:10:28.766Z,25.50
2019-04-25T13:12:58.858Z,25.50
2019-04-25T13:15:29.271Z,25.50
2019-04-25T13:17:59.280Z,25.30
2019-04-25T13:20:29.674Z,25.30
2019-04-25T13:23:00.558Z,25.10
2019-04-25T13:25:30.758Z,25.00
2019-04-25T13:28:20.553Z,24.90
2019-04-25T13:31:09.727Z,24.90
2019-04-25T13:33:43.875Z,24.90
2019-04-25T13:36:15.045Z,24.80
2019-04-25T13:38:45.302Z,24.90
2019-04-25T13:41:15.427Z,25.00
2019-04-25T13:43:45.431Z,25.10
2019-04-25T13:46:18.863Z,25.00
2019-04-25T13:48:46.854Z,25.10
2019-04-25T13:51:16.430Z,25.10
2019-04-25T13:53:45.968Z,25.20
2019-04-25T13:56:16.186Z,25.00
2019-04-25T13:58:46.280Z,25.00
2019-04-25T14:01:17.931Z,25.10
2019-04-25T14:03:48.034Z,25.10
2019-04-25T14:06:17.559Z,25.00
2019-04-25T14:08:47.623Z,25.00
2019-04-25T14:11:17.915Z,24.90
2019-04-25T14:13:48.019Z,24.80
2019-04-25T14:16:26.396Z,24.70
2019-04-25T14:19:00.899Z,24.50
2019-04-25T14:21:31.647Z,24.50
2019-04-25T14:24:02.581Z,24.40
2019-04-25T14:26:32.043Z,24.30
2019-04-25T14:29:01.575Z,24.30
2019-04-25T14:31:42.365Z,24.20
2019-04-25T14:34:03.314Z,24.30
2019-04-25T14:36:34.555Z,24.30
2019-04-25T14:39:05.759Z,24.20
2019-04-25T14:41:35.788Z,24.10
2019-04-25T14:44:05.800Z,24.40
2019-04-25T14:46:35.760Z,24.80
2019-04-25T14:49:05.598Z,25.00
2019-04-25T14:51:35.049Z,24.90
2019-04-25T14:54:06.705Z,24.80
2019-04-25T14:56:38.376Z,24.80
2019-04-25T14:59:08.034Z,24.80
2019-04-25T15:01:44.539Z,24.70
2019-04-25T15:04:08.707Z,24.80
2019-04-25T15:06:38.165Z,24.90
2019-04-25T15:09:07.691Z,25.00
2019-04-25T15:11:37.729Z,25.50
2019-04-25T15:14:07.796Z,25.20
2019-04-25T15:16:37.829Z,25.20
2019-04-25T15:19:08.018Z,25.40
2019-04-25T15:21:38.182Z,25.70
2019-04-25T15:24:08.190Z,26.10
2019-04-25T15:26:40.264Z,26.30
2019-04-25T15:29:10.027Z,26.50
2019-04-25T15:31:40.151Z,26.50
2019-04-25T15:34:10.154Z,26.40
2019-04-25T15:36:50.954Z,26.50
2019-04-25T15:39:26.153Z,26.40
2019-04-25T15:42:09.899Z,26.20
2019-04-25T15:44:53.535Z,26.10
2019-04-25T15:47:27.642Z,25.80
2019-04-25T15:49:57.698Z,25.60
2019-04-25T15:52:27.714Z,25.50
2019-04-25T15:55:07.060Z,25.50
2019-04-25T15:57:29.627Z,25.30
2019-04-25T15:59:59.871Z,25.30
2019-04-25T16:02:30.197Z,25.30
2019-04-25T16:04:59.748Z,25.20
2019-04-25T16:07:29.277Z,24.90
2019-04-25T16:09:59.355Z,24.90
2019-04-25T16:12:28.771Z,24.90
2019-04-25T16:14:58.915Z,24.90
2019-04-25T16:17:29.034Z,24.90
2019-04-25T16:19:58.481Z,24.90
2019-04-25T16:22:29.110Z,24.80
2019-04-25T16:24:58.720Z,24.80
2019-04-25T16:27:28.973Z,24.80
2019-04-25T16:29:59.343Z,24.80
2019-04-25T16:32:29.229Z,24.80
2019-04-25T16:34:59.342Z,24.70
2019-04-25T16:37:30.298Z,24.60
2019-04-25T16:40:00.646Z,24.50
2019-04-25T16:42:30.366Z,24.60
2019-04-25T16:45:00.098Z,24.50
2019-04-25T16:47:31.159Z,24.50
2019-04-25T16:50:00.780Z,24.80
2019-04-25T16:52:31.700Z,24.90
2019-04-25T16:55:01.800Z,25.10
2019-04-25T16:57:32.707Z,24.90
2019-04-25T17:00:03.912Z,24.70
2019-04-25T17:02:37.515Z,24.40
2019-04-25T17:05:06.980Z,24.30
2019-04-25T17:07:36.415Z,24.00
2019-04-25T17:10:06.977Z,23.70
2019-04-25T17:12:36.809Z,23.50
2019-04-25T17:15:09.142Z,23.30
2019-04-25T17:17:40.910Z,23.20
2019-04-25T17:20:14.988Z,23.10
2019-04-25T17:22:47.866Z,23.00
2019-04-25T17:25:17.702Z,22.90
2019-04-25T17:27:47.147Z,22.80
2019-04-25T17:30:17.068Z,22.80
2019-04-25T17:32:53.544Z,22.70
2019-04-25T17:35:21.149Z,22.60
2019-04-25T17:37:52.322Z,22.50
2019-04-25T17:40:26.236Z,22.50
2019-04-25T17:42:55.764Z,22.40
2019-04-25T17:45:26.860Z,22.30
2019-04-25T17:47:56.363Z,22.20
2019-04-25T17:50:26.163Z,22.10
2019-04-25T17:52:55.706Z,22.00
2019-04-25T17:55:25.382Z,21.90
2019-04-25T17:57:54.914Z,21.90
2019-04-25T18:00:28.902Z,21.80
2019-04-25T18:02:59.258Z,21.80
2019-04-25T18:05:29.374Z,21.70
2019-04-25T18:07:59.307Z,21.70
2019-04-25T18:10:29.283Z,21.60
2019-04-25T18:12:58.698Z,21.50
2019-04-25T18:15:48.495Z,21.50
2019-04-25T18:18:22.492Z,21.40
2019-04-25T18:20:54.479Z,21.40
2019-04-25T18:23:45.274Z,21.30
2019-04-25T18:26:25.840Z,21.30
2019-04-25T18:29:03.075Z,21.20
2019-04-25T18:31:32.585Z,21.20
2019-04-25T18:34:04.222Z,21.20
2019-04-25T18:36:36.135Z,21.10
2019-04-25T18:39:10.846Z,21.10
2019-04-25T18:41:41.946Z,21.10
2019-04-25T18:44:13.109Z,21.00
2019-04-25T18:46:44.670Z,21.00
2019-04-25T18:49:14.227Z,20.90
2019-04-25T18:51:54.965Z,20.90
2019-04-25T18:54:17.135Z,20.80
2019-04-25T18:56:48.399Z,20.80
2019-04-25T18:59:35.770Z,20.80
2019-04-25T19:02:18.779Z,20.80
2019-04-25T19:05:05.290Z,20.70
2019-04-25T19:07:34.749Z,20.70
2019-04-25T19:10:06.970Z,20.70
2019-04-25T19:12:37.022Z,20.60
2019-04-25T19:15:07.299Z,20.60
2019-04-25T19:17:36.747Z,20.60
2019-04-25T19:20:06.291Z,20.50
2019-04-25T19:22:35.851Z,20.50
2019-04-25T19:25:05.831Z,20.50
2019-04-25T19:27:35.872Z,20.50
2019-04-25T19:30:06.932Z,20.50
2019-04-25T19:32:36.464Z,20.40
2019-04-25T19:35:06.650Z,20.40
2019-04-25T19:37:36.787Z,20.40
2019-04-25T19:40:17.295Z,20.40
2019-04-25T19:42:48.884Z,20.30
2019-04-25T19:45:18.413Z,20.40
2019-04-25T19:47:48.047Z,20.30
2019-04-25T19:50:17.624Z,20.30
2019-04-25T19:52:47.611Z,20.30
2019-04-25T19:55:18.780Z,20.30
2019-04-25T19:57:48.277Z,20.20
2019-04-25T20:00:18.038Z,20.20
2019-04-25T20:02:49.264Z,20.20
2019-04-25T20:05:23.271Z,20.10
2019-04-25T20:08:00.481Z,20.10
2019-04-25T20:10:37.850Z,20.10
2019-04-25T20:13:07.299Z,20.10
2019-04-25T20:15:36.890Z,20.10
2019-04-25T20:18:06.463Z,20.00
2019-04-25T20:20:36.468Z,20.00
2019-04-25T20:23:05.929Z,19.90
2019-04-25T20:25:35.465Z,19.90
2019-04-25T20:28:05.089Z,19.80
2019-04-25T20:30:34.521Z,19.80
2019-04-25T20:33:04.219Z,19.80
2019-04-25T20:35:33.750Z,19.80
2019-04-25T20:38:03.361Z,19.80
2019-04-25T20:40:32.883Z,19.80
2019-04-25T20:43:02.419Z,19.80
2019-04-25T20:45:31.964Z,19.80
2019-04-25T20:48:01.464Z,19.70
2019-04-25T20:50:30.915Z,19.70
2019-04-25T20:53:00.349Z,19.60
2019-04-25T20:55:29.871Z,19.60
2019-04-25T20:57:59.297Z,19.50
2019-04-25T21:00:43.602Z,19.50
2019-04-25T21:03:13.038Z,19.50
2019-04-25T21:05:43.156Z,19.40
2019-04-25T21:08:12.610Z,19.40
2019-04-25T21:10:42.434Z,19.40
2019-04-25T21:13:13.656Z,19.40
2019-04-25T21:15:50.749Z,19.40
2019-04-25T21:18:38.159Z,19.40
2019-04-25T21:21:07.771Z,19.40
2019-04-25T21:23:37.226Z,19.40
2019-04-25T21:26:06.732Z,19.40
2019-04-25T21:28:36.318Z,19.30
2019-04-25T21:31:05.851Z,19.20
2019-04-25T21:33:35.474Z,19.20
2019-04-25T21:36:05.410Z,19.10
2019-04-25T21:38:35.211Z,19.10
2019-04-25T21:41:06.382Z,19.00
2019-04-25T21:43:37.934Z,19.00
2019-04-25T21:46:07.658Z,18.90
2019-04-25T21:48:37.387Z,18.80
2019-04-25T21:51:24.491Z,18.80
2019-04-25T21:53:54.485Z,18.80
2019-04-25T21:56:24.974Z,18.70
2019-04-25T21:58:55.410Z,18.70
2019-04-25T22:01:32.591Z,18.60
2019-04-25T22:04:02.913Z,18.50
2019-04-25T22:06:32.999Z,18.50
2019-04-25T22:09:03.040Z,18.40
2019-04-25T22:11:32.607Z,18.40
2019-04-25T22:14:02.506Z,18.50
2019-04-25T22:16:32.943Z,18.50
2019-04-25T22:19:04.043Z,18.60
2019-04-25T22:21:38.332Z,18.60
2019-04-25T22:24:10.008Z,18.60
2019-04-25T22:26:36.377Z,18.60
2019-04-25T22:29:07.523Z,18.60
2019-04-25T22:31:41.855Z,18.60
2019-04-25T22:34:14.073Z,18.60
2019-04-25T22:36:43.927Z,18.60
2019-04-25T22:39:14.194Z,18.60
2019-04-25T22:41:46.812Z,18.70
2019-04-25T22:44:17.789Z,18.70
2019-04-25T22:46:47.515Z,18.60
2019-04-25T22:49:16.932Z,18.60
2019-04-25T22:51:46.389Z,18.60
2019-04-25T22:54:16.215Z,18.60
2019-04-25T22:56:45.734Z,18.60
2019-04-25T22:59:15.810Z,18.60
2019-04-25T23:01:49.843Z,18.60
2019-04-25T23:04:23.735Z,18.60
2019-04-25T23:06:53.277Z,18.60
2019-04-25T23:09:22.837Z,18.60
2019-04-25T23:11:52.753Z,18.50
2019-04-25T23:14:22.465Z,18.50
2019-04-25T23:16:52.057Z,18.40
2019-04-25T23:19:21.594Z,18.40
2019-04-25T23:21:51.415Z,18.30
2019-04-25T23:24:23.146Z,18.30
2019-04-25T23:26:54.510Z,18.30
2019-04-25T23:29:24.022Z,18.30
2019-04-25T23:31:53.618Z,18.30
2019-04-25T23:34:23.460Z,18.20
2019-04-25T23:36:53.066Z,18.20
2019-04-25T23:39:22.803Z,18.20
2019-04-25T23:41:52.328Z,18.20
2019-04-25T23:44:21.787Z,18.10
2019-04-25T23:46:51.694Z,18.10
2019-04-25T23:49:21.338Z,18.00
2019-04-25T23:51:51.138Z,18.00
2019-04-25T23:54:20.592Z,18.00
2019-04-25T23:56:50.110Z,18.00
2019-04-25T23:59:19.738Z,17.90
